createdAt,value
2019-05-19T00:02:28.881Z,20.03
2019-05-19T00:04:57.776Z,19.17
2019-05-19T00:07:26.793Z,20.30
2019-05-19T00:09:55.601Z,19.77
2019-05-19T00:12:24.569Z,21.70
2019-05-19T00:14:53.803Z,23.80
2019-05-19T00:17:22.657Z,17.80
2019-05-19T00:19:51.516Z,19.40
2019-05-19T00:22:20.497Z,27.80
2019-05-19T00:24:50.312Z,19.90
2019-05-19T00:27:19.227Z,22.80
2019-05-19T00:29:48.063Z,25.00
2019-05-19T00:32:17.019Z,27.77
2019-05-19T00:34:45.821Z,20.27
2019-05-19T00:37:14.697Z,27.17
2019-05-19T00:39:43.568Z,32.57
2019-05-19T00:42:12.952Z,26.70
2019-05-19T00:44:41.874Z,27.73
2019-05-19T00:47:10.855Z,26.00
2019-05-19T00:49:41.573Z,25.80
2019-05-19T00:52:10.520Z,31.00
2019-05-19T00:54:39.399Z,27.33
2019-05-19T00:57:08.879Z,27.90
2019-05-19T00:59:38.384Z,27.87
2019-05-19T01:02:07.377Z,33.03
2019-05-19T01:04:36.208Z,29.63
2019-05-19T01:07:05.355Z,21.57
2019-05-19T01:09:34.443Z,25.10
2019-05-19T01:12:03.810Z,26.53
2019-05-19T01:14:32.800Z,25.23
2019-05-19T01:17:02.208Z,24.93
2019-05-19T01:19:31.365Z,31.33
2019-05-19T01:22:01.671Z,27.10
2019-05-19T01:24:31.116Z,26.40
2019-05-19T01:26:59.931Z,29.00
2019-05-19T01:29:28.840Z,27.97
2019-05-19T01:31:57.685Z,25.13
2019-05-19T01:34:26.994Z,27.73
2019-05-19T01:36:55.853Z,24.93
2019-05-19T01:39:24.817Z,33.93
2019-05-19T01:41:53.674Z,32.60
2019-05-19T01:44:22.516Z,29.10
2019-05-19T01:46:51.440Z,28.60
2019-05-19T01:49:20.616Z,34.00
2019-05-19T01:51:49.562Z,31.27
2019-05-19T01:54:18.532Z,33.40
2019-05-19T01:56:47.834Z,35.27
2019-05-19T01:59:16.662Z,35.60
2019-05-19T02:01:45.495Z,38.23
2019-05-19T02:04:14.402Z,31.00
2019-05-19T02:06:43.563Z,36.77
2019-05-19T02:09:12.501Z,31.53
2019-05-19T02:11:41.362Z,30.70
2019-05-19T02:14:10.369Z,30.30
2019-05-19T02:16:39.267Z,33.53
2019-05-19T02:19:08.543Z,42.90
2019-05-19T02:21:37.479Z,37.27
2019-05-19T02:24:06.464Z,36.50
2019-05-19T02:26:35.372Z,30.90
2019-05-19T02:29:04.482Z,40.60
2019-05-19T02:31:33.294Z,35.10
2019-05-19T02:34:03.304Z,35.37
2019-05-19T02:36:32.185Z,35.03
2019-05-19T02:39:00.992Z,32.80
2019-05-19T02:41:32.530Z,32.60
2019-05-19T02:44:03.394Z,45.93
2019-05-19T02:46:34.539Z,39.27
2019-05-19T02:49:04.531Z,46.93
2019-05-19T02:51:34.822Z,45.47
2019-05-19T02:54:05.914Z,47.97
2019-05-19T02:56:35.330Z,44.30
2019-05-19T02:59:04.623Z,49.10
2019-05-19T03:01:35.425Z,42.93
2019-05-19T03:04:04.267Z,47.93
2019-05-19T03:06:33.065Z,45.70
2019-05-19T03:09:05.685Z,48.17
2019-05-19T03:11:34.494Z,48.77
2019-05-19T03:14:03.359Z,39.50
2019-05-19T03:16:32.176Z,43.97
2019-05-19T03:19:01.348Z,50.90
2019-05-19T03:21:30.187Z,54.60
2019-05-19T03:23:59.018Z,51.37
2019-05-19T03:26:27.833Z,54.57
2019-05-19T03:28:57.017Z,55.27
2019-05-19T03:31:35.122Z,52.13
2019-05-19T03:34:04.486Z,76.20
2019-05-19T03:36:33.748Z,62.40
2019-05-19T03:39:02.591Z,64.27
2019-05-19T03:41:31.739Z,53.43
2019-05-19T03:44:00.924Z,60.50
2019-05-19T03:46:30.141Z,53.73
2019-05-19T03:48:59.017Z,57.80
2019-05-19T03:51:31.404Z,54.37
2019-05-19T03:53:58.359Z,50.03
2019-05-19T03:56:27.243Z,59.27
2019-05-19T03:58:56.031Z,56.47
2019-05-19T04:01:24.833Z,48.90
2019-05-19T04:03:53.780Z,60.60
2019-05-19T04:06:22.591Z,50.83
2019-05-19T04:08:51.485Z,56.57
2019-05-19T04:11:20.289Z,54.93
2019-05-19T04:13:49.161Z,55.83
2019-05-19T04:16:18.354Z,55.67
2019-05-19T04:18:47.203Z,55.17
2019-05-19T04:21:16.078Z,60.87
2019-05-19T04:23:45.048Z,52.47
2019-05-19T04:26:13.829Z,51.80
2019-05-19T04:28:43.027Z,49.17
2019-05-19T04:31:11.838Z,58.60
2019-05-19T04:33:41.017Z,56.13
2019-05-19T04:36:10.515Z,55.83
2019-05-19T04:38:39.323Z,48.97
2019-05-19T04:41:08.144Z,51.10
2019-05-19T04:43:36.948Z,52.00
2019-05-19T04:46:06.581Z,49.10
2019-05-19T04:48:35.831Z,52.73
2019-05-19T04:51:04.645Z,56.37
2019-05-19T04:53:33.624Z,58.10
2019-05-19T04:56:02.769Z,51.27
2019-05-19T04:58:31.631Z,51.33
2019-05-19T05:01:00.456Z,54.00
2019-05-19T05:03:29.283Z,56.23
2019-05-19T05:05:58.124Z,48.73
2019-05-19T05:08:30.443Z,56.73
2019-05-19T05:10:57.860Z,46.53
2019-05-19T05:13:26.696Z,46.93
2019-05-19T05:15:55.542Z,44.23
2019-05-19T05:18:24.712Z,49.50
2019-05-19T05:20:53.718Z,51.40
2019-05-19T05:23:22.541Z,45.13
2019-05-19T05:25:51.622Z,59.27
2019-05-19T05:28:20.788Z,53.13
2019-05-19T05:30:49.688Z,56.47
2019-05-19T05:33:18.810Z,44.67
2019-05-19T05:35:47.712Z,41.57
2019-05-19T05:38:16.856Z,43.80
2019-05-19T05:40:46.264Z,56.37
2019-05-19T05:43:15.096Z,55.33
2019-05-19T05:45:44.048Z,50.80
2019-05-19T05:48:13.811Z,55.00
2019-05-19T05:50:42.610Z,56.50
2019-05-19T05:53:11.589Z,56.00
2019-05-19T05:55:40.470Z,61.37
2019-05-19T05:58:09.549Z,52.43
2019-05-19T06:00:38.492Z,58.90
2019-05-19T06:03:07.410Z,57.90
2019-05-19T06:05:36.215Z,57.73
2019-05-19T06:08:05.168Z,56.33
2019-05-19T06:10:34.284Z,60.97
2019-05-19T06:13:03.174Z,56.03
2019-05-19T06:15:32.098Z,55.53
2019-05-19T06:18:00.974Z,60.10
2019-05-19T06:20:30.127Z,61.50
2019-05-19T06:22:59.209Z,60.80
2019-05-19T06:25:28.858Z,64.67
2019-05-19T06:27:57.788Z,67.37
2019-05-19T06:30:27.859Z,52.97
2019-05-19T06:32:57.703Z,60.27
2019-05-19T06:35:26.819Z,64.37
2019-05-19T06:37:55.811Z,63.47
2019-05-19T06:40:24.778Z,57.83
2019-05-19T06:42:53.784Z,60.07
2019-05-19T06:45:22.939Z,58.83
2019-05-19T06:47:52.148Z,63.90
2019-05-19T06:50:21.376Z,64.70
2019-05-19T06:52:50.299Z,66.67
2019-05-19T06:55:19.269Z,61.60
2019-05-19T06:57:48.499Z,64.77
2019-05-19T07:00:18.642Z,71.20
2019-05-19T07:02:48.031Z,72.23
2019-05-19T07:05:17.393Z,65.07
2019-05-19T07:07:46.190Z,70.33
2019-05-19T07:10:15.635Z,63.07
2019-05-19T07:12:44.524Z,59.20
2019-05-19T07:15:14.106Z,75.23
2019-05-19T07:17:42.915Z,61.33
2019-05-19T07:20:12.574Z,63.40
2019-05-19T07:22:41.974Z,70.23
2019-05-19T07:25:10.845Z,67.20
2019-05-19T07:27:39.924Z,60.40
2019-05-19T07:30:09.541Z,73.97
2019-05-19T07:32:38.743Z,67.40
2019-05-19T07:35:08.558Z,67.53
2019-05-19T07:37:38.060Z,60.80
2019-05-19T07:40:07.311Z,63.47
2019-05-19T07:42:36.677Z,64.07
2019-05-19T07:45:06.620Z,65.20
2019-05-19T07:47:35.460Z,66.60
2019-05-19T07:50:04.657Z,61.80
2019-05-19T07:52:33.882Z,72.23
2019-05-19T07:55:02.984Z,59.77
2019-05-19T07:57:32.281Z,66.40
2019-05-19T08:00:01.114Z,64.17
2019-05-19T08:02:30.312Z,60.83
2019-05-19T08:04:59.272Z,59.47
2019-05-19T08:07:28.767Z,60.97
2019-05-19T08:09:57.615Z,63.60
2019-05-19T08:12:26.735Z,62.00
2019-05-19T08:14:55.777Z,64.57
2019-05-19T08:17:26.006Z,59.33
2019-05-19T08:19:55.451Z,74.43
2019-05-19T08:22:24.392Z,60.50
2019-05-19T08:24:53.392Z,60.20
2019-05-19T08:27:22.297Z,64.23
2019-05-19T08:29:51.602Z,63.00
2019-05-19T08:32:20.538Z,67.33
2019-05-19T08:34:49.543Z,64.97
2019-05-19T08:37:18.432Z,65.03
2019-05-19T08:39:47.584Z,62.33
2019-05-19T08:42:17.233Z,59.37
2019-05-19T08:44:46.119Z,52.83
2019-05-19T08:47:15.544Z,55.40
2019-05-19T08:49:44.380Z,49.87
2019-05-19T08:52:14.133Z,51.87
2019-05-19T08:54:43.547Z,52.03
2019-05-19T08:57:12.431Z,54.40
2019-05-19T08:59:41.373Z,49.90
2019-05-19T09:02:23.955Z,51.00
2019-05-19T09:04:52.825Z,58.90
2019-05-19T09:07:22.128Z,48.40
2019-05-19T09:09:51.151Z,50.00
2019-05-19T09:12:20.329Z,53.20
2019-05-19T09:14:49.268Z,53.83
2019-05-19T09:17:18.128Z,54.00
2019-05-19T09:19:47.838Z,58.67
2019-05-19T09:22:16.716Z,49.27
2019-05-19T09:24:45.523Z,55.70
2019-05-19T09:27:14.419Z,52.90
2019-05-19T09:29:43.355Z,57.53
2019-05-19T09:32:12.972Z,52.23
2019-05-19T09:34:41.895Z,49.87
2019-05-19T09:37:10.700Z,43.70
2019-05-19T09:39:39.850Z,49.33
2019-05-19T09:42:08.729Z,48.43
2019-05-19T09:44:37.556Z,51.37
2019-05-19T09:47:07.174Z,52.40
2019-05-19T09:49:36.218Z,49.03
2019-05-19T09:52:06.491Z,49.20
2019-05-19T09:54:44.736Z,48.00
2019-05-19T09:57:06.540Z,49.93
2019-05-19T09:59:35.388Z,49.57
2019-05-19T10:02:04.699Z,50.57
2019-05-19T10:04:33.677Z,52.37
2019-05-19T10:07:04.526Z,50.53
2019-05-19T10:10:03.187Z,58.53
2019-05-19T10:12:32.470Z,54.90
2019-05-19T10:15:02.790Z,47.93
2019-05-19T10:17:31.907Z,49.13
2019-05-19T10:20:00.834Z,47.23
2019-05-19T10:22:30.183Z,49.80
2019-05-19T10:25:19.948Z,49.30
2019-05-19T10:27:29.693Z,59.70
2019-05-19T10:29:58.614Z,48.43
2019-05-19T10:32:27.641Z,42.43
2019-05-19T10:34:56.543Z,45.73
2019-05-19T10:37:25.443Z,49.87
2019-05-19T10:39:54.508Z,41.53
2019-05-19T10:42:23.432Z,44.07
2019-05-19T10:44:52.342Z,46.20
2019-05-19T10:47:21.857Z,50.43
2019-05-19T10:49:51.043Z,48.80
2019-05-19T10:52:19.984Z,39.90
2019-05-19T10:54:49.981Z,43.50
2019-05-19T10:57:18.850Z,44.03
2019-05-19T10:59:47.657Z,48.50
2019-05-19T11:02:17.080Z,45.57
2019-05-19T11:04:45.914Z,42.13
2019-05-19T11:07:15.263Z,44.47
2019-05-19T11:09:44.266Z,44.63
2019-05-19T11:12:13.192Z,48.73
2019-05-19T11:14:42.089Z,52.03
2019-05-19T11:17:11.459Z,46.23
2019-05-19T11:19:40.271Z,37.67
2019-05-19T11:22:09.598Z,40.93
2019-05-19T11:24:38.791Z,40.77
2019-05-19T11:27:10.070Z,38.80
2019-05-19T11:29:38.293Z,37.80
2019-05-19T11:32:07.280Z,38.27
2019-05-19T11:34:36.090Z,36.33
2019-05-19T11:37:07.292Z,35.90
2019-05-19T11:39:35.995Z,39.27
2019-05-19T11:42:04.932Z,32.70
2019-05-19T11:44:33.868Z,32.93
2019-05-19T11:47:02.751Z,53.83
2019-05-19T11:49:31.539Z,45.57
2019-05-19T11:52:00.545Z,39.30
2019-05-19T11:54:30.176Z,30.23
2019-05-19T11:56:59.157Z,33.87
2019-05-19T11:59:28.455Z,37.40
2019-05-19T12:01:57.297Z,36.10
2019-05-19T12:04:26.203Z,40.60
2019-05-19T12:06:55.047Z,45.87
2019-05-19T12:09:23.949Z,33.53
2019-05-19T12:11:52.855Z,40.03
2019-05-19T12:14:21.649Z,33.63
2019-05-19T12:16:50.781Z,39.33
2019-05-19T12:19:19.663Z,31.20
2019-05-19T12:21:48.661Z,35.20
2019-05-19T12:24:17.591Z,32.50
2019-05-19T12:26:47.061Z,38.03
2019-05-19T12:29:16.795Z,33.57
2019-05-19T12:31:45.590Z,31.10
2019-05-19T12:34:14.728Z,37.13
2019-05-19T12:36:43.632Z,36.73
2019-05-19T12:39:12.755Z,42.73
2019-05-19T12:41:42.039Z,37.43
2019-05-19T12:44:10.880Z,36.40
2019-05-19T12:46:40.142Z,32.77
2019-05-19T12:49:09.059Z,34.43
2019-05-19T12:51:38.124Z,37.20
2019-05-19T12:54:07.044Z,37.30
2019-05-19T12:56:39.633Z,32.70
2019-05-19T12:59:06.488Z,25.33
2019-05-19T13:01:35.456Z,27.63
2019-05-19T13:04:04.829Z,31.43
2019-05-19T13:06:33.659Z,29.60
2019-05-19T13:09:03.238Z,32.00
2019-05-19T13:11:32.183Z,28.13
2019-05-19T13:14:01.019Z,24.60
2019-05-19T13:16:30.264Z,24.60
2019-05-19T13:18:59.435Z,32.77
2019-05-19T13:21:28.774Z,27.43
2019-05-19T13:23:57.683Z,27.20
2019-05-19T13:26:26.642Z,29.33
2019-05-19T13:28:55.534Z,27.90
2019-05-19T13:31:24.407Z,26.17
2019-05-19T13:33:53.253Z,22.97
2019-05-19T13:36:22.505Z,23.00
2019-05-19T13:38:51.397Z,13.03
2019-05-19T13:41:20.362Z,6.00
2019-05-19T13:43:49.345Z,2.13
2019-05-19T13:46:18.248Z,8.40
2019-05-19T13:48:47.298Z,2.17
2019-05-19T13:51:16.140Z,3.80
2019-05-19T13:53:45.008Z,2.73
2019-05-19T13:56:14.996Z,3.00
2019-05-19T13:58:44.220Z,3.33
2019-05-19T14:01:27.590Z,2.30
2019-05-19T14:03:43.673Z,6.97
2019-05-19T14:06:13.041Z,5.13
2019-05-19T14:08:42.033Z,2.93
2019-05-19T14:11:10.856Z,7.00
2019-05-19T14:13:39.790Z,4.10
2019-05-19T14:16:08.913Z,8.20
2019-05-19T14:18:37.800Z,6.00
2019-05-19T14:21:06.777Z,10.23
2019-05-19T14:23:35.749Z,7.63
2019-05-19T14:26:04.741Z,3.93
2019-05-19T14:28:33.634Z,4.13
2019-05-19T14:31:02.819Z,6.40
2019-05-19T14:33:31.712Z,10.90
2019-05-19T14:36:00.589Z,5.50
2019-05-19T14:38:29.636Z,3.00
2019-05-19T14:40:58.539Z,5.33
2019-05-19T14:43:27.678Z,6.77
2019-05-19T14:45:56.717Z,7.97
2019-05-19T14:48:25.602Z,3.77
2019-05-19T14:50:54.410Z,7.60
2019-05-19T14:53:23.290Z,7.07
2019-05-19T14:55:52.096Z,4.80
2019-05-19T14:58:21.128Z,9.17
2019-05-19T15:00:50.369Z,10.70
2019-05-19T15:03:19.188Z,8.80
2019-05-19T15:05:48.046Z,12.27
2019-05-19T15:08:17.158Z,11.47
2019-05-19T15:10:46.149Z,7.83
2019-05-19T15:13:15.397Z,12.00
2019-05-19T15:15:44.246Z,10.83
2019-05-19T15:18:13.077Z,13.77
2019-05-19T15:20:41.961Z,11.87
2019-05-19T15:23:11.039Z,8.87
2019-05-19T15:25:39.866Z,8.93
2019-05-19T15:28:09.090Z,16.70
2019-05-19T15:30:38.105Z,13.73
2019-05-19T15:33:07.013Z,12.27
2019-05-19T15:35:36.311Z,10.20
2019-05-19T15:38:05.473Z,7.37
2019-05-19T15:40:34.354Z,7.10
2019-05-19T15:43:03.279Z,14.70
2019-05-19T15:45:32.228Z,9.80
2019-05-19T15:48:01.104Z,11.83
2019-05-19T15:50:30.002Z,6.77
2019-05-19T15:52:58.861Z,11.63
2019-05-19T15:55:28.141Z,8.37
2019-05-19T15:57:57.002Z,15.90
2019-05-19T16:00:25.961Z,13.33
2019-05-19T16:02:55.248Z,13.37
2019-05-19T16:05:24.103Z,8.50
2019-05-19T16:07:52.985Z,13.10
2019-05-19T16:10:22.050Z,23.37
2019-05-19T16:12:50.878Z,13.33
2019-05-19T16:15:19.864Z,14.23
2019-05-19T16:17:49.058Z,10.63
2019-05-19T16:20:18.228Z,10.80
2019-05-19T16:22:47.188Z,11.87
2019-05-19T16:25:17.359Z,21.30
2019-05-19T16:27:46.540Z,10.97
2019-05-19T16:30:16.100Z,7.77
2019-05-19T16:32:44.935Z,13.87
2019-05-19T16:35:13.903Z,13.70
2019-05-19T16:37:43.963Z,14.07
2019-05-19T16:40:13.481Z,12.57
2019-05-19T16:42:42.399Z,10.07
2019-05-19T16:45:13.025Z,10.60
2019-05-19T16:47:41.926Z,10.63
2019-05-19T16:50:12.415Z,12.57
2019-05-19T16:52:41.336Z,7.67
2019-05-19T16:55:21.307Z,8.50
2019-05-19T16:57:50.445Z,4.97
2019-05-19T17:00:20.124Z,8.03
2019-05-19T17:02:49.016Z,8.80
2019-05-19T17:05:18.277Z,10.67
2019-05-19T17:07:47.210Z,8.90
2019-05-19T17:10:16.324Z,12.17
2019-05-19T17:12:46.061Z,8.67
2019-05-19T17:15:15.818Z,10.80
2019-05-19T17:17:44.624Z,12.17
2019-05-19T17:20:14.461Z,11.60
2019-05-19T17:22:43.482Z,12.57
2019-05-19T17:25:12.989Z,9.53
2019-05-19T17:27:41.919Z,13.50
2019-05-19T17:30:12.881Z,16.70
2019-05-19T17:32:41.720Z,16.00
2019-05-19T17:35:11.382Z,15.50
2019-05-19T17:37:40.370Z,13.30
2019-05-19T17:40:10.266Z,18.37
2019-05-19T17:42:40.147Z,16.30
2019-05-19T17:45:10.465Z,12.40
2019-05-19T17:47:39.334Z,18.67
2019-05-19T17:50:09.278Z,13.03
2019-05-19T17:52:38.289Z,15.60
2019-05-19T17:55:08.104Z,18.00
2019-05-19T17:57:37.820Z,15.43
2019-05-19T18:00:10.165Z,14.70
2019-05-19T18:02:38.556Z,15.40
2019-05-19T18:05:07.797Z,13.47
2019-05-19T18:07:37.041Z,19.87
2019-05-19T18:10:06.713Z,14.30
2019-05-19T18:12:35.702Z,14.20
2019-05-19T18:15:05.190Z,18.50
2019-05-19T18:17:34.072Z,14.77
2019-05-19T18:20:03.226Z,12.73
2019-05-19T18:22:32.224Z,17.57
2019-05-19T18:25:01.032Z,18.50
2019-05-19T18:27:30.076Z,16.03
2019-05-19T18:29:59.216Z,18.93
2019-05-19T18:32:28.013Z,18.27
2019-05-19T18:34:56.888Z,20.87
2019-05-19T18:37:25.722Z,16.20
2019-05-19T18:39:54.855Z,15.43
2019-05-19T18:42:23.774Z,25.53
2019-05-19T18:44:52.634Z,21.20
2019-05-19T18:47:21.507Z,18.77
2019-05-19T18:49:50.819Z,18.43
2019-05-19T18:52:19.736Z,17.00
2019-05-19T18:54:50.504Z,18.00
2019-05-19T18:57:19.917Z,20.40
2019-05-19T18:59:48.837Z,19.20
2019-05-19T19:02:18.016Z,20.90
2019-05-19T19:04:46.876Z,24.03
2019-05-19T19:07:15.888Z,25.53
2019-05-19T19:09:44.847Z,19.00
2019-05-19T19:12:13.697Z,17.97
2019-05-19T19:14:42.573Z,19.80
2019-05-19T19:17:11.665Z,18.13
2019-05-19T19:19:40.544Z,19.40
2019-05-19T19:22:09.436Z,17.90
2019-05-19T19:24:38.732Z,24.23
2019-05-19T19:27:07.653Z,20.03
2019-05-19T19:29:36.794Z,18.90
2019-05-19T19:32:05.841Z,28.57
2019-05-19T19:34:35.010Z,22.57
2019-05-19T19:37:04.014Z,18.53
2019-05-19T19:39:33.187Z,21.77
2019-05-19T19:42:02.079Z,20.53
2019-05-19T19:44:31.087Z,19.10
2019-05-19T19:46:59.902Z,15.03
2019-05-19T19:49:28.791Z,16.90
2019-05-19T19:51:57.768Z,17.30
2019-05-19T19:54:26.585Z,18.20
2019-05-19T19:56:55.722Z,17.90
2019-05-19T19:59:24.603Z,20.20
2019-05-19T20:01:54.189Z,20.80
2019-05-19T20:04:23.779Z,21.37
2019-05-19T20:06:52.874Z,21.87
2019-05-19T20:09:21.991Z,19.90
2019-05-19T20:11:50.815Z,20.73
2019-05-19T20:14:20.111Z,20.07
2019-05-19T20:16:48.959Z,19.53
2019-05-19T20:19:17.950Z,21.00
2019-05-19T20:21:46.835Z,22.77
2019-05-19T20:24:15.728Z,22.13
2019-05-19T20:26:44.886Z,26.40
2019-05-19T20:29:13.862Z,24.47
2019-05-19T20:31:43.426Z,26.30
2019-05-19T20:34:12.501Z,23.13
2019-05-19T20:36:41.694Z,21.50
2019-05-19T20:39:10.546Z,27.47
2019-05-19T20:41:39.565Z,24.97
2019-05-19T20:44:08.494Z,27.97
2019-05-19T20:46:37.320Z,28.00
2019-05-19T20:49:06.241Z,19.90
2019-05-19T20:51:35.073Z,25.63
2019-05-19T20:54:03.951Z,22.03
2019-05-19T20:56:33.145Z,25.77
2019-05-19T20:59:02.046Z,29.20
2019-05-19T21:01:30.965Z,25.13
2019-05-19T21:03:59.829Z,23.30
2019-05-19T21:06:28.663Z,31.70
2019-05-19T21:08:57.944Z,26.63
2019-05-19T21:11:27.141Z,25.27
2019-05-19T21:13:55.948Z,27.10
2019-05-19T21:16:24.858Z,30.83
2019-05-19T21:18:53.725Z,27.83
2019-05-19T21:21:22.569Z,26.27
2019-05-19T21:23:51.520Z,31.03
2019-05-19T21:26:20.411Z,24.97
2019-05-19T21:28:49.302Z,31.57
2019-05-19T21:31:18.227Z,30.90
2019-05-19T21:33:47.446Z,29.80
2019-05-19T21:36:16.285Z,33.30
2019-05-19T21:38:45.092Z,30.80
2019-05-19T21:41:14.531Z,39.60
2019-05-19T21:43:43.340Z,34.63
2019-05-19T21:46:12.449Z,36.80
2019-05-19T21:48:41.332Z,37.67
2019-05-19T21:51:10.225Z,36.70
2019-05-19T21:53:39.031Z,39.13
2019-05-19T21:56:07.989Z,37.83
2019-05-19T21:58:36.896Z,42.07
2019-05-19T22:01:05.890Z,45.47
2019-05-19T22:03:34.843Z,56.47
2019-05-19T22:06:03.670Z,50.10
2019-05-19T22:08:32.652Z,49.70
2019-05-19T22:11:04.422Z,51.30
2019-05-19T22:13:32.163Z,53.97
2019-05-19T22:16:12.463Z,53.47
2019-05-19T22:18:31.540Z,57.87
2019-05-19T22:21:00.379Z,44.80
2019-05-19T22:23:29.264Z,59.83
2019-05-19T22:25:58.163Z,45.67
2019-05-19T22:28:27.481Z,46.27
2019-05-19T22:30:56.321Z,60.77
2019-05-19T22:33:25.674Z,52.80
2019-05-19T22:35:54.479Z,52.40
2019-05-19T22:38:23.382Z,56.53
2019-05-19T22:40:52.214Z,51.60
2019-05-19T22:43:21.100Z,54.57
2019-05-19T22:45:49.964Z,56.33
2019-05-19T22:48:18.950Z,57.07
2019-05-19T22:50:47.806Z,64.23
2019-05-19T22:53:16.686Z,61.77
2019-05-19T22:55:45.544Z,68.13
2019-05-19T22:58:14.419Z,57.17
2019-05-19T23:00:43.287Z,56.30
2019-05-19T23:03:12.278Z,55.00
2019-05-19T23:05:41.440Z,55.83
2019-05-19T23:08:10.285Z,63.47
2019-05-19T23:10:39.223Z,59.87
2019-05-19T23:13:08.444Z,64.80
2019-05-19T23:15:37.380Z,64.13
2019-05-19T23:18:06.273Z,74.20
2019-05-19T23:20:35.155Z,69.60
2019-05-19T23:23:04.032Z,87.77
2019-05-19T23:25:32.935Z,76.03
2019-05-19T23:28:01.773Z,70.57
2019-05-19T23:30:30.668Z,83.17
2019-05-19T23:32:59.575Z,94.33
2019-05-19T23:35:28.383Z,83.00
2019-05-19T23:37:57.534Z,92.67
2019-05-19T23:40:26.347Z,90.83
2019-05-19T23:42:55.182Z,93.60
2019-05-19T23:45:24.050Z,105.83
2019-05-19T23:47:52.850Z,99.10
2019-05-19T23:50:21.707Z,95.27
2019-05-19T23:52:50.511Z,96.77
2019-05-19T23:55:19.735Z,106.23
2019-05-19T23:57:48.640Z,109.43
